Union, North Carolina
Current Conditions -  °F | °C
As of 1:15 AM on Sunday 26 Oct 2014 (Local Time) from KRHP Reporting Station
Haze Haze  
Wind Chill: 46°   Ceiling: Unl
Heat Index: 46°   Visibility: 2mi
Dew Point: 46°   Wind: 0mph
Humidity: 100%   Direction: NA
Pressure: 30.07"   Gusts: NA
Location:  35.1737°N, 83.4215°W
Report Text: KRHP 260515Z AUTO 00000KT 2SM BR CLR 08/08 A3007 RMK AO2 T00780078
Loading
Personal Weather Stations






























Interactive Weather Map
Tropical Storm Tracking
New forecast layout! Learn more

10-Day Weather Forecast

Advertisements
Track Severe Weather on mobile